Terminal Aerodrome Forecast
Issued by NWS

Home | Current Version | Previous Version | Text Only | Print | Product List | Glossary On
Versions: 1 2 3 4 5 6 7 8 9 10 11 12 13 14 15 16 17 18 19 20
000
FTUS42 KILM 270535
TAFCRE
TAF
KCRE 270535Z 2706/2806 20008KT P6SM SCT025 BKN150
      TEMPO 2708/2712 BKN025
     FM271500 17011KT P6SM VCSH BKN035
     FM271900 17013G20KT P6SM BKN040
     FM280000 16011KT P6SM VCSH OVC020
     FM280200 16011KT 5SM SHRA OVC010
     FM280400 15011KT 2SM +SHRA OVC003=

USA.gov is the U.S. government's official web portal to all federal, state and local government web resources and services.